Time;durP1;ratioP1;P1;durP2;ratioP2;P2;SDS_P1;SDS_P2;PMS_P1;PMS_P2;Temp;Humidity;BMP_temperature;BMP_pressure;BME280_temperature;BME280_humidity;BME280_pressure;Samples;Min_cycle;Max_cycle;Signal;HPM_P1;HPM_P2
2022/06/17 00:01:21;;;;;;;0.03;0.03;;;14.80;99.90;;;;;;5098717;28;20084;-80
2022/06/17 00:03:48;;;;;;;0.00;0.00;;;14.80;99.90;;;;;;5098372;28;20047;-80
2022/06/17 00:06:15;;;;;;;0.05;0.05;;;14.70;99.90;;;;;;5098181;28;20398;-80
2022/06/17 00:08:44;;;;;;;0.00;0.00;;;14.70;99.90;;;;;;5098072;28;20047;-80
2022/06/17 00:11:17;;;;;;;0.00;0.00;;;14.70;99.90;;;;;;5081243;28;20105;-80
2022/06/17 00:13:43;;;;;;;0.00;0.00;;;14.60;99.90;;;;;;5097823;28;20044;-80
2022/06/17 00:16:16;;;;;;;0.00;0.00;;;14.60;99.90;;;;;;5081157;28;20130;-81
2022/06/17 00:18:43;;;;;;;0.00;0.00;;;14.60;99.90;;;;;;5097927;28;20086;-80
2022/06/17 00:21:21;;;;;;;0.00;0.00;;;14.60;99.90;;;;;;5097792;28;20055;-80
2022/06/17 00:23:47;;;;;;;0.35;0.05;;;14.50;99.90;;;;;;5080855;28;20055;-80
2022/06/17 00:26:12;;;;;;;0.00;0.00;;;14.40;99.90;;;;;;5080788;28;20044;-80
2022/06/17 00:28:38;;;;;;;0.00;0.00;;;14.30;99.90;;;;;;5097807;28;20127;-80
2022/06/17 00:31:04;;;;;;;0.00;0.00;;;14.30;99.90;;;;;;5097548;28;20040;-80
2022/06/17 00:33:29;;;;;;;0.55;0.55;;;14.30;99.90;;;;;;5097419;28;20543;-80
2022/06/17 00:35:56;;;;;;;0.13;0.10;;;14.30;99.90;;;;;;5097566;28;20061;-80
2022/06/17 00:38:25;;;;;;;0.00;0.00;;;14.20;99.90;;;;;;5097357;28;20051;-80
2022/06/17 00:40:52;;;;;;;0.00;0.00;;;14.20;99.90;;;;;;5080507;28;20135;-80
2022/06/17 00:43:33;;;;;;;0.20;0.20;;;14.20;99.90;;;;;;5097982;28;20096;-80
2022/06/17 00:46:24;;;;;;;0.00;0.00;;;14.20;99.90;;;;;;5097102;28;20044;-80
2022/06/17 00:49:15;;;;;;;0.00;0.00;;;14.20;99.90;;;;;;5097068;28;20044;-80
2022/06/17 00:51:46;;;;;;;0.00;0.00;;;14.20;99.90;;;;;;5097187;28;20052;-81
2022/06/17 00:54:34;;;;;;;0.00;0.00;;;14.10;99.90;;;;;;5080459;28;20176;-80
2022/06/17 00:57:00;;;;;;;0.00;0.00;;;14.10;99.90;;;;;;5097163;28;20054;-81
2022/06/17 00:59:26;;;;;;;0.00;0.00;;;14.10;99.90;;;;;;5080125;28;20047;-80
2022/06/17 01:02:07;;;;;;;0.00;0.00;;;14.10;99.90;;;;;;5096731;28;20039;-80
2022/06/17 01:04:38;;;;;;;0.00;0.00;;;14.00;99.90;;;;;;5097061;28;20048;-80
2022/06/17 01:07:25;;;;;;;0.03;0.03;;;14.00;99.90;;;;;;5080158;28;20051;-80
2022/06/17 01:10:00;;;;;;;0.05;0.03;;;14.00;99.90;;;;;;5079464;28;20521;-80
2022/06/17 01:12:38;;;;;;;0.00;0.00;;;14.00;99.90;;;;;;5097034;28;20407;-80
2022/06/17 01:15:06;;;;;;;0.10;0.10;;;14.00;99.90;;;;;;5096584;28;20057;-80
2022/06/17 01:17:32;;;;;;;0.00;0.00;;;14.00;99.90;;;;;;5079898;28;20067;-80
2022/06/17 01:20:00;;;;;;;0.00;0.00;;;14.00;99.90;;;;;;5079866;28;20052;-80
2022/06/17 01:22:26;;;;;;;0.00;0.00;;;13.90;99.90;;;;;;5079754;28;20086;-80
2022/06/17 01:25:13;;;;;;;0.00;0.00;;;13.90;99.90;;;;;;5080091;28;20143;-80
2022/06/17 01:27:42;;;;;;;0.10;0.00;;;14.00;99.90;;;;;;5096381;28;20058;-80
2022/06/17 01:30:12;;;;;;;0.00;0.00;;;13.90;99.90;;;;;;5096577;28;20051;-80
2022/06/17 01:32:47;;;;;;;0.00;0.00;;;14.00;99.90;;;;;;5079488;28;20044;-80
2022/06/17 01:35:13;;;;;;;0.00;0.00;;;14.00;99.90;;;;;;5096888;28;20131;-80
2022/06/17 01:37:39;;;;;;;0.00;0.00;;;13.90;99.90;;;;;;5080261;28;20057;-80
2022/06/17 01:40:06;;;;;;;0.00;0.00;;;13.90;99.90;;;;;;5096703;28;20089;-80
2022/06/17 01:42:35;;;;;;;0.00;0.00;;;13.90;99.90;;;;;;5096659;28;20047;-80
2022/06/17 01:45:01;;;;;;;0.00;0.00;;;13.90;99.90;;;;;;5096555;28;20413;-80
2022/06/17 01:47:29;;;;;;;0.10;0.10;;;13.90;99.90;;;;;;5079346;28;20036;-80
2022/06/17 01:50:00;;;;;;;0.35;0.05;;;13.90;99.90;;;;;;5095814;28;20048;-80
2022/06/17 01:52:47;;;;;;;0.10;0.10;;;13.90;99.90;;;;;;5079436;28;20048;-80
2022/06/17 01:55:22;;;;;;;0.30;0.10;;;13.80;99.90;;;;;;5096390;28;20483;-80
2022/06/17 01:58:16;;;;;;;0.00;0.00;;;13.80;99.90;;;;;;5079500;28;20050;-80
2022/06/17 02:00:42;;;;;;;0.00;0.00;;;13.80;99.90;;;;;;5015341;28;20068;-80
2022/06/17 02:03:16;;;;;;;0.25;0.10;;;13.80;99.90;;;;;;4999648;28;20064;-80
2022/06/17 02:05:47;;;;;;;0.30;0.08;;;13.90;99.90;;;;;;5019287;28;20062;-80
2022/06/17 02:08:13;;;;;;;0.00;0.00;;;13.90;99.90;;;;;;5019260;28;20054;-80
2022/06/17 02:10:42;;;;;;;0.00;0.00;;;13.90;99.90;;;;;;5018698;28;20432;-80
2022/06/17 02:13:09;;;;;;;0.10;0.10;;;13.90;99.90;;;;;;5018738;28;20128;-80
2022/06/17 02:15:36;;;;;;;0.00;0.00;;;13.80;99.90;;;;;;5018941;28;20382;-80
2022/06/17 02:18:06;;;;;;;0.00;0.00;;;13.80;99.90;;;;;;5018827;28;20057;-80
2022/06/17 02:20:32;;;;;;;0.00;0.00;;;13.70;99.90;;;;;;5002268;28;20053;-80
2022/06/17 02:22:58;;;;;;;0.00;0.00;;;13.80;99.90;;;;;;5002323;28;20053;-80
2022/06/17 02:25:30;;;;;;;0.28;0.22;;;13.80;99.90;;;;;;5018675;28;20188;-80
2022/06/17 02:28:00;;;;;;;0.10;0.10;;;13.80;99.90;;;;;;5018791;28;20045;-80
2022/06/17 02:30:28;;;;;;;0.13;0.10;;;13.70;99.90;;;;;;5018624;28;20065;-80
2022/06/17 02:32:56;;;;;;;0.00;0.00;;;13.70;99.90;;;;;;5001886;28;20515;-80
2022/06/17 02:35:54;;;;;;;0.13;0.13;;;13.70;99.90;;;;;;5018579;28;20370;-80
2022/06/17 02:38:25;;;;;;;0.08;0.00;;;13.70;99.90;;;;;;5007517;28;20142;-80
2022/06/17 02:40:54;;;;;;;0.00;0.00;;;13.70;99.90;;;;;;5018678;28;20188;-80
2022/06/17 02:43:25;;;;;;;0.52;0.43;;;13.70;99.90;;;;;;5018455;28;20053;-80
2022/06/17 02:46:01;;;;;;;0.35;0.20;;;13.60;99.90;;;;;;5001966;28;20069;-80
2022/06/17 02:48:33;;;;;;;0.35;0.03;;;13.60;99.90;;;;;;5001754;28;20074;-80
2022/06/17 02:51:01;;;;;;;0.00;0.00;;;13.60;99.90;;;;;;5001620;28;20191;-79
2022/06/17 02:53:31;;;;;;;0.00;0.00;;;13.60;99.90;;;;;;5018312;28;20121;-80
2022/06/17 02:55:57;;;;;;;0.00;0.00;;;13.50;99.90;;;;;;5002031;28;20432;-80
2022/06/17 02:58:53;;;;;;;0.00;0.00;;;13.50;99.90;;;;;;5018201;28;20049;-80
2022/06/17 03:01:25;;;;;;;0.60;0.17;;;13.50;99.90;;;;;;5001113;28;20076;-80
2022/06/17 03:03:53;;;;;;;0.00;0.00;;;13.50;99.90;;;;;;5018164;28;20489;-80
2022/06/17 03:06:30;;;;;;;0.00;0.00;;;13.50;99.90;;;;;;5018071;28;20057;-80
2022/06/17 03:08:59;;;;;;;0.03;0.00;;;13.60;99.90;;;;;;5001617;28;20065;-80
2022/06/17 03:11:24;;;;;;;0.00;0.00;;;13.60;99.90;;;;;;5001423;28;20133;-80
2022/06/17 03:13:53;;;;;;;0.17;0.17;;;13.60;99.90;;;;;;5030776;28;20074;-79
2022/06/17 03:16:20;;;;;;;1.08;0.32;;;13.60;99.90;;;;;;5098969;28;20390;-79
2022/06/17 03:18:48;;;;;;;0.13;0.13;;;13.60;99.90;;;;;;5081652;28;20490;-80
2022/06/17 03:21:20;;;;;;;0.00;0.00;;;13.60;99.90;;;;;;5098806;28;20046;-80
2022/06/17 03:24:01;;;;;;;0.00;0.00;;;13.60;99.90;;;;;;5082201;28;20043;-80
2022/06/17 03:26:33;;;;;;;0.03;0.00;;;13.60;99.90;;;;;;5082237;28;20082;-80
2022/06/17 03:29:02;;;;;;;0.43;0.10;;;13.70;99.90;;;;;;5098777;28;20049;-79
2022/06/17 03:31:40;;;;;;;4.20;0.00;;;13.70;99.90;;;;;;5098373;28;20039;-80
2022/06/17 03:34:16;;;;;;;0.13;0.00;;;13.70;99.90;;;;;;5098839;28;20097;-80
2022/06/17 03:36:50;;;;;;;0.00;0.00;;;13.70;99.90;;;;;;5098993;28;20423;-80
2022/06/17 03:39:32;;;;;;;0.10;0.00;;;13.80;99.90;;;;;;5081872;28;20047;-79
2022/06/17 03:42:13;;;;;;;0.03;0.00;;;13.80;99.90;;;;;;5098369;28;20071;-80
2022/06/17 03:45:01;;;;;;;0.00;0.00;;;13.90;99.90;;;;;;5099005;28;20047;-80
2022/06/17 03:47:48;;;;;;;0.00;0.00;;;13.90;99.90;;;;;;5098398;28;20040;-80
2022/06/17 03:50:33;;;;;;;0.00;0.00;;;13.90;99.90;;;;;;5097847;28;20098;-80
2022/06/17 03:53:03;;;;;;;0.00;0.00;;;14.00;99.90;;;;;;5098163;28;20091;-79
2022/06/17 03:55:30;;;;;;;0.10;0.10;;;14.00;99.90;;;;;;5098304;28;20046;-80
2022/06/17 03:57:59;;;;;;;0.05;0.05;;;14.00;99.90;;;;;;5098108;28;20406;-80
2022/06/17 04:00:59;;;;;;;0.35;0.05;;;14.00;99.90;;;;;;5080773;28;20475;-79
2022/06/17 04:03:34;;;;;;;0.00;0.00;;;14.10;99.90;;;;;;5017319;28;20057;-79
2022/06/17 04:06:16;;;;;;;0.75;0.40;;;14.10;99.90;;;;;;5016797;28;20050;-79
2022/06/17 04:09:13;;;;;;;0.00;0.00;;;14.20;99.90;;;;;;5033287;28;20053;-80
2022/06/17 04:11:42;;;;;;;0.08;0.00;;;14.30;99.90;;;;;;5017082;28;20081;-79
2022/06/17 04:14:37;;;;;;;0.00;0.00;;;14.30;99.90;;;;;;5033209;28;20107;-79
2022/06/17 04:17:12;;;;;;;0.00;0.00;;;14.40;99.90;;;;;;5000093;28;20553;-80
2022/06/17 04:19:39;;;;;;;0.00;0.00;;;14.40;99.90;;;;;;5016660;28;20061;-80
2022/06/17 04:22:19;;;;;;;0.00;0.00;;;14.40;99.90;;;;;;5016051;28;20129;-79
2022/06/17 04:25:00;;;;;;;0.00;0.00;;;14.50;99.90;;;;;;5016947;28;20057;-80
2022/06/17 04:27:56;;;;;;;1.00;0.60;;;14.60;99.90;;;;;;5015555;28;20513;-80
2022/06/17 04:30:19;;;;;;;0.00;0.00;;;14.70;99.90;;;;;;5032683;28;20053;-79
2022/06/17 04:32:45;;;;;;;0.17;0.17;;;14.90;99.90;;;;;;5016112;28;20092;-79
2022/06/17 04:35:13;;;;;;;0.03;0.00;;;15.00;99.90;;;;;;5016476;28;20049;-79
2022/06/17 04:37:40;;;;;;;0.00;0.00;;;15.10;99.90;;;;;;5033011;28;20067;-79
2022/06/17 04:40:36;;;;;;;0.00;0.00;;;15.20;99.90;;;;;;5067536;28;20059;-79
2022/06/17 04:43:32;;;;;;;0.00;0.00;;;15.30;99.90;;;;;;5016248;28;20446;-79
2022/06/17 04:46:04;;;;;;;0.10;0.10;;;15.30;99.90;;;;;;4941642;28;20153;-79
2022/06/17 04:48:30;;;;;;;0.00;0.00;;;15.40;99.90;;;;;;4941862;28;20149;-79
2022/06/17 04:50:56;;;;;;;0.00;0.00;;;15.40;99.90;;;;;;4956934;28;20157;-79
2022/06/17 04:53:22;;;;;;;0.00;0.00;;;15.50;99.90;;;;;;4942110;28;20047;-79
2022/06/17 04:55:48;;;;;;;0.22;0.20;;;15.50;99.90;;;;;;4941435;28;20089;-79
2022/06/17 04:58:20;;;;;;;0.00;0.00;;;15.50;99.90;;;;;;4941623;28;20058;-79
2022/06/17 05:00:49;;;;;;;0.00;0.00;;;15.60;99.90;;;;;;4957257;28;20061;-79
2022/06/17 05:03:16;;;;;;;0.10;0.10;;;15.70;99.90;;;;;;4957427;28;20058;-79
2022/06/17 05:05:44;;;;;;;0.00;0.00;;;15.70;99.90;;;;;;4941554;28;20487;-79
2022/06/17 05:08:23;;;;;;;0.00;0.00;;;15.80;99.90;;;;;;4941132;28;20418;-79
2022/06/17 05:10:55;;;;;;;0.00;0.00;;;15.90;99.90;;;;;;4941367;28;20081;-79
2022/06/17 05:13:31;;;;;;;0.03;0.00;;;15.90;99.90;;;;;;4957028;28;20558;-79
2022/06/17 05:15:56;;;;;;;0.22;0.05;;;16.00;99.90;;;;;;4941422;28;20179;-79
2022/06/17 05:18:22;;;;;;;0.00;0.00;;;16.00;99.90;;;;;;4941792;28;20128;-79
2022/06/17 05:20:48;;;;;;;0.00;0.00;;;16.10;99.90;;;;;;5005755;28;20511;-79
2022/06/17 05:23:15;;;;;;;0.00;0.00;;;16.10;99.90;;;;;;5085776;28;20056;-79
2022/06/17 05:25:44;;;;;;;0.40;0.20;;;16.20;99.90;;;;;;5096517;28;20051;-79
2022/06/17 05:28:13;;;;;;;0.00;0.00;;;16.20;99.90;;;;;;5079586;28;20111;-79
2022/06/17 05:30:42;;;;;;;0.00;0.00;;;16.20;99.90;;;;;;5079529;28;20043;-79
2022/06/17 05:33:13;;;;;;;0.00;0.00;;;16.20;99.90;;;;;;5096275;28;20372;-79
2022/06/17 05:35:38;;;;;;;0.45;0.10;;;16.30;99.90;;;;;;5079505;28;20047;-79
2022/06/17 05:38:04;;;;;;;0.17;0.17;;;16.20;99.90;;;;;;5096406;28;20172;-79
2022/06/17 05:40:31;;;;;;;0.00;0.00;;;16.30;99.90;;;;;;5096459;28;20039;-79
2022/06/17 05:42:57;;;;;;;0.00;0.00;;;16.40;99.90;;;;;;5096283;28;20047;-79
2022/06/17 05:45:25;;;;;;;0.43;0.10;;;16.40;99.90;;;;;;5096366;28;20394;-79
2022/06/17 05:47:52;;;;;;;0.00;0.00;;;16.50;99.90;;;;;;5079166;28;20139;-79
2022/06/17 05:50:20;;;;;;;0.00;0.00;;;16.50;99.90;;;;;;5095651;28;20056;-79
2022/06/17 05:52:58;;;;;;;0.10;0.00;;;16.60;99.90;;;;;;5079081;28;20079;-79
2022/06/17 05:55:27;;;;;;;0.10;0.00;;;16.60;99.90;;;;;;5095971;28;20540;-80
2022/06/17 05:57:53;;;;;;;0.00;0.00;;;16.60;99.90;;;;;;5079653;28;20059;-79
2022/06/17 06:00:19;;;;;;;0.57;0.43;;;16.70;99.90;;;;;;5096674;28;20039;-79
2022/06/17 06:02:45;;;;;;;0.05;0.05;;;16.70;99.90;;;;;;5096280;28;20043;-79
2022/06/17 06:05:18;;;;;;;0.00;0.00;;;16.80;99.90;;;;;;5096165;28;20043;-79
2022/06/17 06:07:44;;;;;;;1.10;0.00;;;16.80;99.90;;;;;;5096077;28;20043;-80
2022/06/17 06:10:10;;;;;;;0.00;0.00;;;16.90;99.90;;;;;;5079589;28;20391;-79
2022/06/17 06:12:54;;;;;;;0.00;0.00;;;16.90;99.90;;;;;;5095692;28;20086;-79
2022/06/17 06:15:21;;;;;;;0.25;0.00;;;17.00;99.90;;;;;;5079478;28;20105;-79
2022/06/17 06:17:48;;;;;;;0.05;0.03;;;17.00;99.90;;;;;;5095947;28;20052;-79
2022/06/17 06:20:15;;;;;;;0.20;0.20;;;17.10;99.90;;;;;;5079042;28;20456;-80
2022/06/17 06:22:41;;;;;;;0.00;0.00;;;17.10;99.90;;;;;;5095957;28;20138;-80
2022/06/17 06:25:07;;;;;;;0.00;0.00;;;17.20;99.90;;;;;;5079021;28;20131;-80
2022/06/17 06:27:34;;;;;;;0.55;0.10;;;17.30;99.90;;;;;;5096443;28;20063;-80
2022/06/17 06:29:59;;;;;;;0.00;0.00;;;17.30;99.90;;;;;;5095785;28;20139;-80
2022/06/17 06:32:25;;;;;;;0.00;0.00;;;17.40;99.90;;;;;;5095681;28;20130;-80
2022/06/17 06:34:52;;;;;;;0.45;0.20;;;17.40;99.90;;;;;;5095832;28;20059;-80
2022/06/17 06:37:17;;;;;;;2.47;0.52;;;17.40;99.90;;;;;;5095483;28;20063;-80
2022/06/17 06:39:43;;;;;;;0.00;0.00;;;17.40;99.90;;;;;;5095752;28;20479;-79
2022/06/17 06:42:09;;;;;;;0.45;0.45;;;17.40;99.90;;;;;;5095728;28;20395;-80
2022/06/17 06:44:35;;;;;;;1.40;0.65;;;17.50;99.90;;;;;;5095909;28;20043;-80
2022/06/17 06:47:00;;;;;;;0.00;0.00;;;17.60;99.90;;;;;;5079038;28;20043;-79
2022/06/17 06:49:26;;;;;;;0.00;0.00;;;17.60;99.90;;;;;;5096922;28;20404;-80
2022/06/17 06:51:52;;;;;;;0.00;0.00;;;17.70;99.90;;;;;;5081837;28;20096;-80
2022/06/17 06:54:17;;;;;;;0.00;0.00;;;17.70;99.90;;;;;;5082261;28;20067;-80
2022/06/17 06:56:43;;;;;;;0.00;0.00;;;17.80;99.90;;;;;;5082077;28;20055;-80
2022/06/17 06:59:11;;;;;;;0.10;0.10;;;17.90;99.90;;;;;;5099351;28;20044;-80
2022/06/17 07:01:37;;;;;;;0.00;0.00;;;18.00;99.90;;;;;;5099324;28;20500;-80
2022/06/17 07:04:04;;;;;;;0.00;0.00;;;18.20;99.90;;;;;;5082228;28;20040;-80
2022/06/17 07:06:31;;;;;;;0.13;0.05;;;18.30;99.90;;;;;;5099078;28;20087;-80
2022/06/17 07:08:57;;;;;;;0.00;0.00;;;18.40;99.90;;;;;;5099057;28;20051;-80
2022/06/17 07:11:22;;;;;;;0.63;0.20;;;18.60;99.90;;;;;;5098832;28;20040;-80
2022/06/17 07:13:48;;;;;;;0.00;0.00;;;18.80;99.90;;;;;;5098820;28;20079;-80
2022/06/17 07:16:14;;;;;;;0.17;0.15;;;18.90;99.90;;;;;;5099032;28;20048;-80
2022/06/17 07:18:40;;;;;;;0.00;0.00;;;19.10;99.90;;;;;;5098817;28;20043;-80
2022/06/17 07:21:08;;;;;;;0.00;0.00;;;19.30;99.90;;;;;;5081974;28;20498;-80
2022/06/17 07:23:37;;;;;;;0.35;0.35;;;19.40;99.90;;;;;;5081819;28;20122;-80
2022/06/17 07:26:26;;;;;;;1.35;0.45;;;19.40;99.90;;;;;;5081997;28;20092;-80
2022/06/17 07:28:53;;;;;;;0.10;0.10;;;19.60;99.90;;;;;;5098808;28;20047;-80
2022/06/17 07:31:20;;;;;;;0.10;0.10;;;19.60;99.90;;;;;;5097967;28;20148;-80
2022/06/17 07:33:46;;;;;;;0.10;0.10;;;19.70;99.90;;;;;;5098777;28;20074;-80
2022/06/17 07:39:53;;;;;;;0.00;0.00;;;19.80;99.90;;;;;;5098489;28;20052;-81
2022/06/17 07:41:55;;;;;;;0.10;0.10;;;20.00;99.90;;;;;;5098348;28;20406;-80
2022/06/17 07:44:21;;;;;;;0.00;0.00;;;20.10;99.90;;;;;;5082369;28;20039;-81
2022/06/17 07:46:46;;;;;;;0.00;0.00;;;20.30;99.90;;;;;;5098206;28;20475;-80
2022/06/17 07:49:12;;;;;;;0.00;0.00;;;20.50;99.90;;;;;;5081335;28;20069;-80
2022/06/17 07:51:38;;;;;;;1.27;0.45;;;20.70;99.90;;;;;;5080061;28;20055;-80
2022/06/17 07:54:04;;;;;;;0.40;0.40;;;20.90;99.90;;;;;;5098170;28;20063;-80
2022/06/17 07:56:30;;;;;;;0.13;0.13;;;21.10;99.90;;;;;;5097883;28;20039;-81
2022/06/17 07:58:55;;;;;;;0.00;0.00;;;21.10;98.60;;;;;;5081819;28;20044;-80
2022/06/17 08:01:21;;;;;;;0.00;0.00;;;21.10;98.50;;;;;;5080497;28;20412;-80
2022/06/17 08:03:46;;;;;;;0.00;0.00;;;21.10;98.30;;;;;;5098234;28;20082;-80
2022/06/17 08:06:14;;;;;;;0.03;0.00;;;21.20;98.70;;;;;;5097995;28;20071;-80
2022/06/17 08:08:40;;;;;;;0.00;0.00;;;21.30;98.00;;;;;;5097885;28;20051;-80
2022/06/17 08:11:07;;;;;;;2.72;0.22;;;21.40;98.10;;;;;;5097856;28;20050;-80
2022/06/17 08:13:33;;;;;;;0.00;0.00;;;21.60;97.70;;;;;;5097956;28;20043;-80
2022/06/17 08:16:01;;;;;;;0.00;0.00;;;21.80;97.50;;;;;;5097568;28;20061;-80
2022/06/17 08:18:27;;;;;;;0.00;0.00;;;21.80;96.50;;;;;;5097952;28;20395;-80
2022/06/17 08:20:53;;;;;;;0.00;0.00;;;21.90;95.90;;;;;;5097287;28;20410;-80
2022/06/17 08:23:21;;;;;;;0.47;0.47;;;22.10;96.80;;;;;;5080448;28;20073;-80
2022/06/17 08:25:47;;;;;;;0.10;0.00;;;22.20;95.90;;;;;;5080805;28;20048;-81
2022/06/17 08:28:14;;;;;;;0.00;0.00;;;22.20;95.60;;;;;;5080468;28;20490;-80
2022/06/17 08:30:44;;;;;;;0.47;0.28;;;22.30;95.80;;;;;;5080699;28;20050;-80
2022/06/17 08:33:10;;;;;;;0.05;0.00;;;22.40;94.90;;;;;;5080302;28;20399;-80
2022/06/17 08:35:39;;;;;;;0.00;0.00;;;22.50;94.20;;;;;;5097426;28;20140;-81
2022/06/17 08:38:11;;;;;;;0.00;0.00;;;22.60;93.60;;;;;;5080822;28;20566;-81
2022/06/17 08:40:56;;;;;;;0.00;0.00;;;22.80;93.90;;;;;;5080849;28;20089;-81
2022/06/17 08:43:37;;;;;;;0.60;0.10;;;22.90;94.50;;;;;;5080631;28;20048;-81
2022/06/17 08:46:30;;;;;;;0.65;0.13;;;22.90;93.30;;;;;;5097106;28;20047;-81
2022/06/17 08:49:02;;;;;;;0.10;0.10;;;22.90;94.10;;;;;;5097251;28;20388;-81
2022/06/17 08:51:33;;;;;;;0.00;0.00;;;22.80;93.20;;;;;;5079797;28;20055;-81
2022/06/17 08:54:15;;;;;;;0.00;0.00;;;22.80;93.50;;;;;;5079874;28;20059;-80
2022/06/17 08:56:58;;;;;;;0.00;0.00;;;22.80;93.80;;;;;;5080168;28;20130;-81
2022/06/17 08:59:37;;;;;;;0.13;0.13;;;23.00;94.50;;;;;;5097628;28;20039;-81
2022/06/17 09:02:26;;;;;;;0.00;0.00;;;23.10;93.60;;;;;;5079892;28;20066;-81
2022/06/17 09:05:18;;;;;;;0.70;0.55;;;23.20;93.00;;;;;;5096600;28;20550;-81
2022/06/17 09:08:09;;;;;;;0.00;0.00;;;23.10;92.50;;;;;;5080333;28;20479;-81
2022/06/17 09:10:58;;;;;;;0.00;0.00;;;23.10;93.10;;;;;;5096824;28;20047;-80
2022/06/17 09:13:32;;;;;;;0.00;0.00;;;23.10;92.40;;;;;;5078996;28;20108;-80
2022/06/17 09:16:08;;;;;;;;;;;23.00;91.80;;;;;;5080889;28;20458;-81
2022/06/17 09:18:40;;;;;;;0.10;0.00;;;23.00;92.30;;;;;;5096826;28;19927;-81
2022/06/17 09:21:20;;;;;;;0.00;0.00;;;22.80;91.40;;;;;;5096556;28;20039;-81
2022/06/17 09:23:46;;;;;;;0.00;0.00;;;22.80;92.00;;;;;;5096489;28;20048;-81
2022/06/17 09:26:30;;;;;;;0.08;0.08;;;22.80;90.90;;;;;;5079877;28;20066;-81
2022/06/17 09:29:18;;;;;;;0.00;0.00;;;22.80;92.50;;;;;;5096684;28;20055;-81
2022/06/17 09:32:08;;;;;;;0.10;0.10;;;22.80;93.00;;;;;;5079465;28;20075;-80
2022/06/17 09:34:44;;;;;;;1.55;0.10;;;22.80;93.30;;;;;;5079829;28;20380;-81
2022/06/17 09:37:38;;;;;;;0.00;0.00;;;22.70;93.00;;;;;;5096317;28;20051;-81
2022/06/17 09:40:34;;;;;;;0.00;0.00;;;22.80;93.50;;;;;;5096168;28;20039;-81
2022/06/17 09:43:34;;;;;;;0.00;0.00;;;22.80;92.80;;;;;;5015189;28;20065;-80
2022/06/17 09:46:21;;;;;;;0.00;0.00;;;23.00;93.30;;;;;;4999111;28;20049;-81
2022/06/17 09:49:18;;;;;;;0.00;0.00;;;23.30;93.00;;;;;;5015226;28;20091;-81
2022/06/17 09:51:52;;;;;;;0.00;0.00;;;23.60;93.10;;;;;;5014859;28;20115;-81
2022/06/17 09:54:44;;;;;;;0.00;0.00;;;23.90;93.20;;;;;;5031322;28;20469;-81
2022/06/17 09:57:44;;;;;;;0.00;0.00;;;24.00;91.80;;;;;;4998896;28;20053;-81
2022/06/17 10:00:15;;;;;;;0.00;0.00;;;24.10;92.40;;;;;;4956707;28;20190;-82
2022/06/17 10:02:47;;;;;;;0.00;0.00;;;24.10;91.80;;;;;;4940933;28;20063;-81
2022/06/17 10:05:31;;;;;;;0.00;0.00;;;24.10;91.00;;;;;;4956733;28;20055;-81
2022/06/17 10:08:26;;;;;;;0.00;0.00;;;24.20;91.10;;;;;;4957425;28;20063;-81
2022/06/17 10:10:54;;;;;;;0.00;0.00;;;24.20;90.90;;;;;;4937358;29;20066;-81
2022/06/17 10:13:37;;;;;;;0.00;0.00;;;24.20;90.40;;;;;;4937740;29;20051;-81
2022/06/17 10:19:30;;;;;;;0.00;0.00;;;24.20;90.50;;;;;;4955645;28;20051;-81
2022/06/17 10:22:13;;;;;;;0.10;0.10;;;24.20;90.50;;;;;;4975869;28;20516;-81
2022/06/17 10:25:09;;;;;;;0.00;0.00;;;24.20;89.00;;;;;;4961963;28;20066;-81
2022/06/17 10:27:53;;;;;;;0.00;0.00;;;24.30;90.30;;;;;;4963595;28;20476;-81
2022/06/17 10:30:25;;;;;;;;;;;24.40;89.30;;;;;;4979946;28;20090;-81
2022/06/17 10:32:54;;;;;;;0.00;0.00;;;24.50;88.10;;;;;;4979393;28;20020;-81
2022/06/17 10:35:28;;;;;;;0.00;0.00;;;24.40;87.00;;;;;;4979397;28;20051;-81
2022/06/17 10:38:00;;;;;;;0.00;0.00;;;24.50;90.20;;;;;;4996606;28;20054;-81
2022/06/17 10:40:29;;;;;;;0.00;0.00;;;24.70;89.70;;;;;;4998911;28;20093;-81
2022/06/17 10:42:59;;;;;;;0.00;0.00;;;24.70;87.70;;;;;;4998796;28;20449;-81
2022/06/17 10:45:25;;;;;;;0.93;0.45;;;24.80;87.10;;;;;;4999103;28;20139;-81
2022/06/17 10:48:00;;;;;;;0.00;0.00;;;24.80;87.00;;;;;;5044667;28;20087;-81
2022/06/17 10:50:29;;;;;;;0.63;0.63;;;24.80;83.50;;;;;;5099392;28;20062;-81
2022/06/17 10:53:09;;;;;;;1.60;0.25;;;24.80;85.80;;;;;;5082185;28;20051;-81
2022/06/17 10:55:39;;;;;;;0.00;0.00;;;24.80;84.00;;;;;;5100177;28;20083;-81
2022/06/17 10:58:33;;;;;;;0.47;0.10;;;24.80;85.30;;;;;;5117435;28;20043;-82
2022/06/17 11:01:11;;;;;;;0.63;0.00;;;24.90;85.40;;;;;;5097175;28;20077;-81
2022/06/17 11:03:42;;;;;;;0.00;0.00;;;25.00;83.80;;;;;;5099257;28;20074;-81
2022/06/17 11:06:23;;;;;;;0.30;0.20;;;25.00;84.90;;;;;;5082328;28;20039;-81
2022/06/17 11:08:49;;;;;;;0.22;0.13;;;25.10;84.80;;;;;;5099439;28;20039;-81
2022/06/17 11:14:25;;;;;;;0.08;0.00;;;25.20;84.80;;;;;;5098914;28;20368;-81
2022/06/17 11:16:51;;;;;;;0.00;0.00;;;25.20;80.30;;;;;;5099054;28;20387;-81
2022/06/17 11:19:19;;;;;;;0.00;0.00;;;25.20;83.00;;;;;;5099262;28;20099;-81
2022/06/17 11:21:49;;;;;;;0.00;0.00;;;25.20;81.90;;;;;;5082291;28;20058;-81
2022/06/17 11:24:22;;;;;;;0.00;0.00;;;25.20;81.20;;;;;;5082030;28;20078;-81
2022/06/17 11:27:05;;;;;;;0.00;0.00;;;25.20;83.10;;;;;;5081828;28;20039;-81
2022/06/17 11:29:38;;;;;;;0.00;0.00;;;25.20;83.60;;;;;;5098613;28;20390;-81
2022/06/17 11:32:19;;;;;;;0.00;0.00;;;25.20;82.50;;;;;;5081506;28;20043;-81
2022/06/17 11:34:55;;;;;;;0.00;0.00;;;25.30;81.10;;;;;;5098369;28;20054;-81
2022/06/17 11:37:25;;;;;;;0.00;0.00;;;25.20;79.20;;;;;;5082350;28;20124;-81
2022/06/17 11:40:21;;;;;;;0.00;0.00;;;25.10;79.90;;;;;;5099067;28;20057;-81
2022/06/17 11:42:57;;;;;;;0.40;0.10;;;25.10;78.70;;;;;;5081312;28;20039;-81
2022/06/17 11:45:31;;;;;;;0.00;0.00;;;25.10;82.00;;;;;;5081380;28;20052;-81
2022/06/17 11:48:09;;;;;;;0.38;0.10;;;25.20;79.90;;;;;;5081982;28;20043;-81
2022/06/17 11:50:37;;;;;;;0.85;0.28;;;25.20;79.30;;;;;;5098186;28;20056;-81
2022/06/17 11:53:13;;;;;;;0.00;0.00;;;25.20;81.70;;;;;;5081301;28;20047;-81
2022/06/17 11:55:47;;;;;;;0.00;0.00;;;25.20;77.90;;;;;;5081295;28;20058;-81
2022/06/17 11:58:17;;;;;;;0.10;0.10;;;25.30;79.60;;;;;;5098338;28;20047;-81
2022/06/17 12:00:45;;;;;;;0.00;0.00;;;25.40;78.00;;;;;;5081227;28;20043;-81
2022/06/17 12:03:13;;;;;;;0.05;0.05;;;25.60;78.70;;;;;;5081274;28;20545;-81
2022/06/17 12:05:40;;;;;;;0.00;0.00;;;26.00;77.70;;;;;;5081116;28;20057;-81
2022/06/17 12:08:24;;;;;;;0.00;0.00;;;26.30;80.20;;;;;;5098129;28;20051;-81
2022/06/17 12:11:02;;;;;;;0.00;0.00;;;26.60;79.60;;;;;;5080367;28;20564;-81
2022/06/17 12:13:48;;;;;;;0.00;0.00;;;26.70;78.80;;;;;;5080468;28;20055;-81
2022/06/17 12:16:27;;;;;;;0.57;0.20;;;26.80;72.90;;;;;;5080916;28;20482;-81
2022/06/17 12:18:56;;;;;;;0.00;0.00;;;27.10;76.90;;;;;;5080885;28;20043;-81
2022/06/17 12:21:43;;;;;;;0.00;0.00;;;27.30;73.20;;;;;;5080810;28;20044;-80
2022/06/17 12:24:23;;;;;;;0.00;0.00;;;27.20;72.30;;;;;;5097796;28;20126;-81
2022/06/17 12:26:58;;;;;;;0.00;0.00;;;27.20;71.00;;;;;;5080707;28;20134;-81
2022/06/17 12:29:33;;;;;;;0.00;0.00;;;27.00;71.30;;;;;;5097557;28;20044;-81
2022/06/17 12:32:06;;;;;;;0.00;0.00;;;27.00;71.10;;;;;;5080412;28;20048;-80
2022/06/17 12:34:54;;;;;;;0.00;0.00;;;27.10;72.50;;;;;;5097395;28;20148;-81
2022/06/17 12:37:43;;;;;;;0.00;0.00;;;27.30;70.20;;;;;;5097470;28;20047;-81
2022/06/17 12:40:20;;;;;;;0.22;0.10;;;27.60;70.60;;;;;;5097722;28;20531;-81
2022/06/17 12:42:55;;;;;;;0.00;0.00;;;27.70;70.20;;;;;;5080551;28;20055;-81
2022/06/17 12:45:41;;;;;;;0.00;0.00;;;27.90;67.80;;;;;;5097933;28;20089;-81
2022/06/17 12:48:32;;;;;;;0.52;0.03;;;28.00;69.40;;;;;;5096199;28;20056;-80
2022/06/17 12:54:05;;;;;;;0.00;0.00;;;28.30;67.80;;;;;;5096979;28;20048;-81
2022/06/17 12:57:01;;;;;;;0.00;0.00;;;28.30;67.20;;;;;;5079711;28;20047;-80
2022/06/17 13:00:10;;;;;;;0.00;0.00;;;28.30;69.70;;;;;;5080242;28;20079;-81
2022/06/17 13:02:54;;;;;;;0.00;0.00;;;28.20;67.20;;;;;;5015730;28;20083;-81
2022/06/17 13:05:20;;;;;;;;;;;28.40;67.20;;;;;;5033180;28;20059;-81
2022/06/17 13:08:08;;;;;;;0.00;0.00;;;28.40;64.80;;;;;;5015816;28;20396;-82
2022/06/17 13:11:00;;;;;;;0.00;0.00;;;28.40;67.70;;;;;;5016146;28;20049;-81
2022/06/17 13:13:44;;;;;;;0.00;0.00;;;28.60;66.50;;;;;;4999442;28;20064;-81
2022/06/17 13:16:47;;;;;;;0.00;0.00;;;28.50;67.20;;;;;;5015673;28;20136;-81
2022/06/17 13:19:26;;;;;;;0.00;0.00;;;28.30;64.00;;;;;;5015617;28;20053;-81
2022/06/17 13:22:16;;;;;;;0.00;0.00;;;28.40;65.80;;;;;;4999181;28;20049;-81
2022/06/17 13:25:29;;;;;;;0.00;0.00;;;28.40;64.50;;;;;;5015893;28;20453;-81
2022/06/17 13:28:16;;;;;;;0.03;0.00;;;28.30;63.60;;;;;;4960429;28;20085;-81
2022/06/17 13:30:48;;;;;;;0.00;0.00;;;28.30;63.50;;;;;;4960447;28;20189;-80
2022/06/17 13:33:38;;;;;;;0.00;0.00;;;28.40;65.80;;;;;;4976145;28;20141;-81
2022/06/17 13:36:11;;;;;;;0.05;0.00;;;28.60;65.50;;;;;;4976599;28;20042;-81